This is the latest recevied weather packets stored in our database for station/object SP1BMW-13. If no packets are shown the sender has not sent any weather packets the latest 10 day(s).
| Time | Temp. | Humidity | Pressure | Rain* | Wind** | Luminosity | Snow |
|---|---|---|---|---|---|---|---|
| 1777285971 | 15.56° C | 35% | 1022.3 hPa | 0 mm | 1.34 m/s, 238° | 655 W/m² | - |
| 1777285911 | 15.56° C | 35% | 1022.1 hPa | 0 mm | 1.79 m/s, 305° | 655 W/m² | - |
| 1777285851 | 15.56° C | 35% | 1022.1 hPa | 0 mm | 0.89 m/s, 324° | 657 W/m² | - |
| 1777285791 | 15.56° C | 36% | 1022.2 hPa | 0 mm | 0.45 m/s, 326° | 658 W/m² | - |
| 1777285731 | 15.56° C | 34% | 1022.3 hPa | 0 mm | 1.79 m/s, 316° | 661 W/m² | - |
| 1777285671 | 15.56° C | 36% | 1022.2 hPa | 0 mm | 0.89 m/s, 317° | 664 W/m² | - |
| 1777285611 | 15.56° C | 35% | 1022.2 hPa | 0 mm | 2.24 m/s, 299° | 658 W/m² | - |
| 1777285551 | 15.56° C | 35% | 1022.2 hPa | 0 mm | 0.89 m/s, 293° | 659 W/m² | - |
| 1777285491 | 15.56° C | 32% | 1022.3 hPa | 0 mm | 2.24 m/s, 273° | 654 W/m² | - |
| 1777285432 | 15.56° C | 33% | 1022.3 hPa | 0 mm | 1.34 m/s, 235° | 657 W/m² | - |
| 1777285372 | 15.56° C | 36% | 1022.4 hPa | 0 mm | 1.79 m/s, 133° | 655 W/m² | - |
| 1777285311 | 15.56° C | 33% | 1022.4 hPa | 0 mm | 2.24 m/s, 342° | 656 W/m² | - |
| 1777285251 | 15.56° C | 34% | 1022.3 hPa | 0 mm | 1.79 m/s, 243° | 657 W/m² | - |
| 1777285191 | 15.56° C | 35% | 1022.4 hPa | 0 mm | 0.45 m/s, 137° | 655 W/m² | - |
| 1777285131 | 15.56° C | 36% | 1022.3 hPa | 0 mm | 1.79 m/s, 334° | 656 W/m² | - |
| 1777285071 | 15.56° C | 34% | 1022.4 hPa | 0 mm | 1.79 m/s, 163° | 654 W/m² | - |
| 1777285011 | 15.56° C | 33% | 1022.4 hPa | 0 mm | 1.79 m/s, 219° | 652 W/m² | - |
| 1777284951 | 15.56° C | 35% | 1022.5 hPa | 0 mm | 0.89 m/s, 301° | 651 W/m² | - |
| 1777284891 | 15.56° C | 35% | 1022.4 hPa | 0 mm | 2.24 m/s, 283° | 651 W/m² | - |
| 1777284830 | 15° C | 36% | 1022.1 hPa | 0 mm | 1.79 m/s, 330° | 645 W/m² | - |
| 1777284770 | 15° C | 36% | 1022.3 hPa | 0 mm | 0.89 m/s, 286° | 645 W/m² | - |
| 1777284710 | 15° C | 34% | 1022.3 hPa | 0 mm | 2.24 m/s, 276° | 648 W/m² | - |
| 1777284650 | 15.56° C | 35% | 1022.5 hPa | 0 mm | 1.34 m/s, 245° | 647 W/m² | - |
| 1777284591 | 15.56° C | 34% | 1022.2 hPa | 0 mm | 1.79 m/s, 334° | 647 W/m² | - |
| 1777284531 | 15.56° C | 35% | 1022.3 hPa | 0 mm | 1.34 m/s, 327° | 646 W/m² | - |
* Rain latest hour (hover to see other rain measurements)
** Current wind speed in m/s (hover to see current wind gust speed)